Ingleside — WDH6600 — position and weather

sailwx.info

Track history (hours):
 
Tides and Currents Weather Stations Pressure Air Temp Water Temp Dewpoint Dewpoint Depression Visibility Wind Speed Wind Dir Waves Ship Positions

Ingleside

Owner: Higman Barge Lines, Inc., Orange, TX. More information available from US FCC via Universal Licensing System and Coast Guard Vessel Documentation Center.

Last reported at 2018-Apr-18 03:19 UTC. Time now 2018-Apr-19 15:18 UTC.
Position N 27°49' W 097°29'.

Length 112 m; draft 3 m.

Type: . MMSI: 367639680.

Date/timePositionNaut miles runAvg speedWind from/ knotsBaromVisibWave heightAir tempDewpointWater temp
2018-Apr-18 03:19N 27°49' W 097°29'0 0.0
2018-Apr-18 02:46N 27°49' W 097°29'0 0.0
2018-Apr-18 00:43N 27°49' W 097°29'  
2018-Apr-12 09:44N 27°51' W 097°31'1 1.1
2018-Apr-12 09:08N 27°50' W 097°31'1 1.0
2018-Apr-12 08:08N 27°50' W 097°30'0 0.0
2018-Apr-12 07:56N 27°50' W 097°30'0 0.1
2018-Apr-12 07:27N 27°50' W 097°30'0 0.1
2018-Apr-12 06:36N 27°50' W 097°30'0 0.0
2018-Apr-12 06:30N 27°50' W 097°30'0 0.0
2018-Apr-12 05:57N 27°50' W 097°30'0 0.0
2018-Apr-12 04:27N 27°50' W 097°30'0 0.0
2018-Apr-12 03:54N 27°50' W 097°30'0 0.0
2018-Apr-12 03:21N 27°50' W 097°30'0 0.0
2018-Apr-12 03:00N 27°50' W 097°30'0 0.0
2018-Apr-12 02:27N 27°50' W 097°30'  
2018-Apr-09 17:38N 28°36' W 096°10'1 2.8
2018-Apr-09 17:10N 28°37' W 096°09'1 3.7
2018-Apr-09 16:49N 28°37' W 096°08'4 4.2
2018-Apr-09 15:55N 28°39' W 096°04'53 2.6
2018-Apr-08 19:48N 29°06' W 095°12'2 4.8
2018-Apr-08 19:29N 29°08' W 095°11'  
Track history (hours):
 
Tides and Currents Weather Stations Pressure Air Temp Water Temp Dewpoint Dewpoint Depression Visibility Wind Speed Wind Dir Waves Ship Positions

Ingleside

Owner: Higman Barge Lines, Inc., Orange, TX. More information available from US FCC via Universal Licensing System and Coast Guard Vessel Documentation Center.

Last reported at 2018-Apr-18 03:19 UTC. Time now 2018-Apr-19 15:18 UTC.
Position N 27°49' W 097°29'.

Length 112 m; draft 3 m.

Type: . MMSI: 367639680.

Date/timePositionNaut miles runAvg speedWind from/ knotsBaromVisibWave heightAir tempDewpointWater temp
2018-Apr-18 03:19N 27°49' W 097°29'0 0.0
2018-Apr-18 02:46N 27°49' W 097°29'0 0.0
2018-Apr-18 00:43N 27°49' W 097°29'  
2018-Apr-12 09:44N 27°51' W 097°31'1 1.1
2018-Apr-12 09:08N 27°50' W 097°31'1 1.0
2018-Apr-12 08:08N 27°50' W 097°30'0 0.0
2018-Apr-12 07:56N 27°50' W 097°30'0 0.1
2018-Apr-12 07:27N 27°50' W 097°30'0 0.1
2018-Apr-12 06:36N 27°50' W 097°30'0 0.0
2018-Apr-12 06:30N 27°50' W 097°30'0 0.0
2018-Apr-12 05:57N 27°50' W 097°30'0 0.0
2018-Apr-12 04:27N 27°50' W 097°30'0 0.0
2018-Apr-12 03:54N 27°50' W 097°30'0 0.0
2018-Apr-12 03:21N 27°50' W 097°30'0 0.0
2018-Apr-12 03:00N 27°50' W 097°30'0 0.0
2018-Apr-12 02:27N 27°50' W 097°30'  
2018-Apr-09 17:38N 28°36' W 096°10'1 2.8
2018-Apr-09 17:10N 28°37' W 096°09'1 3.7
2018-Apr-09 16:49N 28°37' W 096°08'4 4.2
2018-Apr-09 15:55N 28°39' W 096°04'53 2.6
2018-Apr-08 19:48N 29°06' W 095°12'2 4.8
2018-Apr-08 19:29N 29°08' W 095°11'  

Dump ship's entire track history